sensor_id;sensor_type;location;lat;lon;timestamp;P1;durP1;ratioP1;P2;durP2;ratioP2
42018;SDS011;27703;51.980;5.848;2023-01-09T00:02:06;2.88;;;0.38;;
42018;SDS011;27703;51.980;5.848;2023-01-09T00:04:32;2.88;;;0.28;;
42018;SDS011;27703;51.980;5.848;2023-01-09T00:06:58;2.00;;;0.20;;
42018;SDS011;27703;51.980;5.848;2023-01-09T00:09:24;0.93;;;0.20;;
42018;SDS011;27703;51.980;5.848;2023-01-09T00:11:50;2.55;;;0.32;;
42018;SDS011;27703;51.980;5.848;2023-01-09T00:14:18;1.27;;;0.20;;
42018;SDS011;27703;51.980;5.848;2023-01-09T00:16:44;3.67;;;0.20;;
42018;SDS011;27703;51.980;5.848;2023-01-09T00:19:10;0.77;;;0.10;;
42018;SDS011;27703;51.980;5.848;2023-01-09T00:21:36;0.88;;;0.17;;
42018;SDS011;27703;51.980;5.848;2023-01-09T00:24:02;1.45;;;0.10;;
42018;SDS011;27703;51.980;5.848;2023-01-09T00:26:28;5.55;;;0.10;;
42018;SDS011;27703;51.980;5.848;2023-01-09T00:28:53;0.98;;;0.10;;
42018;SDS011;27703;51.980;5.848;2023-01-09T00:31:19;1.63;;;0.20;;
42018;SDS011;27703;51.980;5.848;2023-01-09T00:36:23;1.45;;;0.10;;
42018;SDS011;27703;51.980;5.848;2023-01-09T00:38:48;3.50;;;0.10;;
42018;SDS011;27703;51.980;5.848;2023-01-09T00:41:34;0.47;;;0.00;;
42018;SDS011;27703;51.980;5.848;2023-01-09T00:44:14;1.65;;;0.10;;
42018;SDS011;27703;51.980;5.848;2023-01-09T00:46:54;1.30;;;0.10;;
42018;SDS011;27703;51.980;5.848;2023-01-09T00:49:25;0.57;;;0.00;;
42018;SDS011;27703;51.980;5.848;2023-01-09T00:51:54;0.55;;;0.10;;
42018;SDS011;27703;51.980;5.848;2023-01-09T00:54:20;1.27;;;0.10;;
42018;SDS011;27703;51.980;5.848;2023-01-09T00:56:46;0.80;;;0.10;;
42018;SDS011;27703;51.980;5.848;2023-01-09T00:59:12;1.30;;;0.10;;
42018;SDS011;27703;51.980;5.848;2023-01-09T01:01:38;0.55;;;0.10;;
42018;SDS011;27703;51.980;5.848;2023-01-09T01:04:03;2.20;;;0.10;;
42018;SDS011;27703;51.980;5.848;2023-01-09T01:06:49;0.47;;;0.10;;
42018;SDS011;27703;51.980;5.848;2023-01-09T01:09:33;0.30;;;0.10;;
42018;SDS011;27703;51.980;5.848;2023-01-09T01:11:59;2.50;;;0.10;;
42018;SDS011;27703;51.980;5.848;2023-01-09T01:14:26;0.40;;;0.10;;
42018;SDS011;27703;51.980;5.848;2023-01-09T01:16:51;0.73;;;0.10;;
42018;SDS011;27703;51.980;5.848;2023-01-09T01:19:17;0.43;;;0.10;;
42018;SDS011;27703;51.980;5.848;2023-01-09T01:21:42;0.75;;;0.10;;
42018;SDS011;27703;51.980;5.848;2023-01-09T01:24:08;0.32;;;0.10;;
42018;SDS011;27703;51.980;5.848;2023-01-09T01:26:34;0.45;;;0.10;;
42018;SDS011;27703;51.980;5.848;2023-01-09T01:28:59;4.32;;;0.10;;
42018;SDS011;27703;51.980;5.848;2023-01-09T01:31:25;1.23;;;0.10;;
42018;SDS011;27703;51.980;5.848;2023-01-09T01:33:50;0.52;;;0.10;;
42018;SDS011;27703;51.980;5.848;2023-01-09T01:36:16;1.25;;;0.47;;
42018;SDS011;27703;51.980;5.848;2023-01-09T01:38:42;1.65;;;0.20;;
42018;SDS011;27703;51.980;5.848;2023-01-09T01:41:08;0.60;;;0.10;;
42018;SDS011;27703;51.980;5.848;2023-01-09T01:43:50;4.15;;;0.30;;
42018;SDS011;27703;51.980;5.848;2023-01-09T01:46:17;1.73;;;0.20;;
42018;SDS011;27703;51.980;5.848;2023-01-09T01:48:42;3.92;;;0.30;;
42018;SDS011;27703;51.980;5.848;2023-01-09T01:51:09;0.60;;;0.30;;
42018;SDS011;27703;51.980;5.848;2023-01-09T01:53:37;1.92;;;0.35;;
42018;SDS011;27703;51.980;5.848;2023-01-09T01:56:10;2.08;;;0.30;;
42018;SDS011;27703;51.980;5.848;2023-01-09T01:58:44;0.95;;;0.20;;
42018;SDS011;27703;51.980;5.848;2023-01-09T02:01:16;1.15;;;0.40;;
42018;SDS011;27703;51.980;5.848;2023-01-09T02:03:43;2.03;;;0.30;;
42018;SDS011;27703;51.980;5.848;2023-01-09T02:06:09;2.15;;;0.40;;
42018;SDS011;27703;51.980;5.848;2023-01-09T02:08:35;0.85;;;0.30;;
42018;SDS011;27703;51.980;5.848;2023-01-09T02:11:01;1.15;;;0.60;;
42018;SDS011;27703;51.980;5.848;2023-01-09T02:13:28;1.40;;;0.68;;
42018;SDS011;27703;51.980;5.848;2023-01-09T02:18:42;0.70;;;0.20;;
42018;SDS011;27703;51.980;5.848;2023-01-09T02:21:12;1.77;;;0.20;;
42018;SDS011;27703;51.980;5.848;2023-01-09T02:32:35;2.67;;;0.20;;
42018;SDS011;27703;51.980;5.848;2023-01-09T02:35:34;2.00;;;0.32;;
42018;SDS011;27703;51.980;5.848;2023-01-09T02:40:49;0.45;;;0.20;;
42018;SDS011;27703;51.980;5.848;2023-01-09T02:43:37;1.70;;;0.40;;
42018;SDS011;27703;51.980;5.848;2023-01-09T02:46:03;2.22;;;0.30;;
42018;SDS011;27703;51.980;5.848;2023-01-09T02:48:29;1.45;;;0.22;;
42018;SDS011;27703;51.980;5.848;2023-01-09T03:05:24;4.15;;;0.30;;
42018;SDS011;27703;51.980;5.848;2023-01-09T03:08:06;1.88;;;0.40;;
42018;SDS011;27703;51.980;5.848;2023-01-09T03:10:45;4.50;;;0.63;;
42018;SDS011;27703;51.980;5.848;2023-01-09T03:13:14;6.53;;;0.40;;
42018;SDS011;27703;51.980;5.848;2023-01-09T03:15:43;2.38;;;0.35;;
42018;SDS011;27703;51.980;5.848;2023-01-09T03:18:13;1.25;;;0.40;;
42018;SDS011;27703;51.980;5.848;2023-01-09T03:20:41;2.65;;;0.50;;
42018;SDS011;27703;51.980;5.848;2023-01-09T03:23:08;1.25;;;0.30;;
42018;SDS011;27703;51.980;5.848;2023-01-09T03:25:34;3.08;;;0.40;;
42018;SDS011;27703;51.980;5.848;2023-01-09T03:28:04;2.20;;;0.30;;
42018;SDS011;27703;51.980;5.848;2023-01-09T03:30:32;3.95;;;0.40;;
42018;SDS011;27703;51.980;5.848;2023-01-09T03:32:58;3.47;;;0.38;;
42018;SDS011;27703;51.980;5.848;2023-01-09T03:35:24;5.63;;;0.40;;
42018;SDS011;27703;51.980;5.848;2023-01-09T03:37:50;1.02;;;0.30;;
42018;SDS011;27703;51.980;5.848;2023-01-09T03:40:19;1.10;;;0.40;;
42018;SDS011;27703;51.980;5.848;2023-01-09T03:42:45;1.73;;;0.40;;
42018;SDS011;27703;51.980;5.848;2023-01-09T03:45:11;1.40;;;0.40;;
42018;SDS011;27703;51.980;5.848;2023-01-09T03:47:37;1.58;;;0.30;;
42018;SDS011;27703;51.980;5.848;2023-01-09T03:50:03;1.17;;;0.45;;
42018;SDS011;27703;51.980;5.848;2023-01-09T03:52:30;2.03;;;0.30;;
42018;SDS011;27703;51.980;5.848;2023-01-09T03:54:55;3.88;;;0.30;;
42018;SDS011;27703;51.980;5.848;2023-01-09T03:57:21;1.20;;;0.30;;
42018;SDS011;27703;51.980;5.848;2023-01-09T03:59:48;2.05;;;0.30;;
42018;SDS011;27703;51.980;5.848;2023-01-09T04:02:13;1.38;;;0.40;;
42018;SDS011;27703;51.980;5.848;2023-01-09T04:04:39;2.13;;;0.38;;
42018;SDS011;27703;51.980;5.848;2023-01-09T04:07:05;1.45;;;0.38;;
42018;SDS011;27703;51.980;5.848;2023-01-09T04:09:30;3.03;;;0.30;;
42018;SDS011;27703;51.980;5.848;2023-01-09T04:11:56;3.38;;;0.47;;
42018;SDS011;27703;51.980;5.848;2023-01-09T04:14:21;5.13;;;0.30;;
42018;SDS011;27703;51.980;5.848;2023-01-09T04:16:47;2.28;;;0.35;;
42018;SDS011;27703;51.980;5.848;2023-01-09T04:19:12;2.70;;;0.30;;
42018;SDS011;27703;51.980;5.848;2023-01-09T04:21:38;1.00;;;0.22;;
42018;SDS011;27703;51.980;5.848;2023-01-09T04:24:03;3.75;;;0.40;;
42018;SDS011;27703;51.980;5.848;2023-01-09T04:26:29;3.15;;;0.50;;
42018;SDS011;27703;51.980;5.848;2023-01-09T04:28:55;2.72;;;0.40;;
42018;SDS011;27703;51.980;5.848;2023-01-09T04:31:20;3.90;;;0.20;;
42018;SDS011;27703;51.980;5.848;2023-01-09T04:33:46;2.50;;;0.40;;
42018;SDS011;27703;51.980;5.848;2023-01-09T04:36:11;1.77;;;0.40;;
42018;SDS011;27703;51.980;5.848;2023-01-09T04:38:37;3.67;;;0.68;;
42018;SDS011;27703;51.980;5.848;2023-01-09T04:41:03;3.72;;;0.40;;
42018;SDS011;27703;51.980;5.848;2023-01-09T04:43:28;5.82;;;0.40;;
42018;SDS011;27703;51.980;5.848;2023-01-09T04:45:54;2.70;;;0.32;;
42018;SDS011;27703;51.980;5.848;2023-01-09T04:48:19;2.83;;;0.47;;
42018;SDS011;27703;51.980;5.848;2023-01-09T04:50:45;2.65;;;0.50;;
42018;SDS011;27703;51.980;5.848;2023-01-09T04:53:10;4.28;;;0.40;;
42018;SDS011;27703;51.980;5.848;2023-01-09T04:55:36;4.85;;;0.50;;
42018;SDS011;27703;51.980;5.848;2023-01-09T04:58:02;6.97;;;0.60;;
42018;SDS011;27703;51.980;5.848;2023-01-09T05:00:27;2.42;;;0.63;;
42018;SDS011;27703;51.980;5.848;2023-01-09T05:02:53;5.53;;;1.38;;
42018;SDS011;27703;51.980;5.848;2023-01-09T05:05:18;6.15;;;0.93;;
42018;SDS011;27703;51.980;5.848;2023-01-09T05:07:44;5.50;;;0.98;;
42018;SDS011;27703;51.980;5.848;2023-01-09T05:10:10;3.55;;;0.55;;
42018;SDS011;27703;51.980;5.848;2023-01-09T05:12:37;5.43;;;0.77;;
42018;SDS011;27703;51.980;5.848;2023-01-09T05:15:03;3.08;;;0.70;;
42018;SDS011;27703;51.980;5.848;2023-01-09T05:17:30;9.27;;;0.90;;
42018;SDS011;27703;51.980;5.848;2023-01-09T05:19:56;5.88;;;1.60;;
42018;SDS011;27703;51.980;5.848;2023-01-09T05:22:21;6.03;;;0.60;;
42018;SDS011;27703;51.980;5.848;2023-01-09T05:24:47;4.97;;;0.75;;
42018;SDS011;27703;51.980;5.848;2023-01-09T05:27:13;3.08;;;1.33;;
42018;SDS011;27703;51.980;5.848;2023-01-09T05:29:38;4.75;;;0.60;;
42018;SDS011;27703;51.980;5.848;2023-01-09T05:32:04;2.80;;;0.50;;
42018;SDS011;27703;51.980;5.848;2023-01-09T05:34:29;5.63;;;0.50;;
42018;SDS011;27703;51.980;5.848;2023-01-09T05:36:55;7.13;;;1.00;;
42018;SDS011;27703;51.980;5.848;2023-01-09T05:39:20;10.57;;;1.35;;
42018;SDS011;27703;51.980;5.848;2023-01-09T05:41:46;6.82;;;0.50;;
42018;SDS011;27703;51.980;5.848;2023-01-09T05:44:12;1.83;;;0.47;;
42018;SDS011;27703;51.980;5.848;2023-01-09T05:46:37;8.25;;;0.70;;
42018;SDS011;27703;51.980;5.848;2023-01-09T05:49:03;7.20;;;0.60;;
42018;SDS011;27703;51.980;5.848;2023-01-09T05:51:28;2.65;;;0.57;;
42018;SDS011;27703;51.980;5.848;2023-01-09T05:53:55;2.83;;;0.55;;
42018;SDS011;27703;51.980;5.848;2023-01-09T05:56:21;9.30;;;0.40;;
42018;SDS011;27703;51.980;5.848;2023-01-09T05:58:47;8.85;;;0.95;;
42018;SDS011;27703;51.980;5.848;2023-01-09T06:01:12;9.13;;;0.60;;
42018;SDS011;27703;51.980;5.848;2023-01-09T06:03:38;7.40;;;0.57;;
42018;SDS011;27703;51.980;5.848;2023-01-09T06:06:03;3.80;;;0.80;;
42018;SDS011;27703;51.980;5.848;2023-01-09T06:08:29;3.08;;;0.50;;
42018;SDS011;27703;51.980;5.848;2023-01-09T06:10:55;2.58;;;0.40;;
42018;SDS011;27703;51.980;5.848;2023-01-09T06:13:20;4.32;;;0.98;;
42018;SDS011;27703;51.980;5.848;2023-01-09T06:15:46;3.58;;;0.40;;
42018;SDS011;27703;51.980;5.848;2023-01-09T06:18:12;3.53;;;0.38;;
42018;SDS011;27703;51.980;5.848;2023-01-09T06:20:37;7.22;;;0.82;;
42018;SDS011;27703;51.980;5.848;2023-01-09T06:23:03;7.45;;;0.60;;
42018;SDS011;27703;51.980;5.848;2023-01-09T06:25:29;5.60;;;0.93;;
42018;SDS011;27703;51.980;5.848;2023-01-09T06:27:54;6.82;;;0.52;;
42018;SDS011;27703;51.980;5.848;2023-01-09T06:30:20;3.17;;;0.40;;
42018;SDS011;27703;51.980;5.848;2023-01-09T06:32:46;10.05;;;0.73;;
42018;SDS011;27703;51.980;5.848;2023-01-09T06:35:13;7.22;;;0.60;;
42018;SDS011;27703;51.980;5.848;2023-01-09T06:37:39;4.82;;;0.35;;
42018;SDS011;27703;51.980;5.848;2023-01-09T06:40:04;8.82;;;1.00;;
42018;SDS011;27703;51.980;5.848;2023-01-09T06:42:30;5.72;;;0.40;;
42018;SDS011;27703;51.980;5.848;2023-01-09T06:44:56;10.43;;;0.52;;
42018;SDS011;27703;51.980;5.848;2023-01-09T06:47:21;5.57;;;0.47;;
42018;SDS011;27703;51.980;5.848;2023-01-09T06:49:47;7.13;;;0.60;;
42018;SDS011;27703;51.980;5.848;2023-01-09T06:52:12;6.25;;;0.80;;
42018;SDS011;27703;51.980;5.848;2023-01-09T06:54:38;6.32;;;0.50;;
42018;SDS011;27703;51.980;5.848;2023-01-09T06:57:03;9.93;;;0.60;;
42018;SDS011;27703;51.980;5.848;2023-01-09T06:59:29;5.95;;;0.40;;
42018;SDS011;27703;51.980;5.848;2023-01-09T07:01:54;10.10;;;0.50;;
42018;SDS011;27703;51.980;5.848;2023-01-09T07:04:20;7.28;;;0.45;;
42018;SDS011;27703;51.980;5.848;2023-01-09T07:06:46;6.03;;;0.40;;
42018;SDS011;27703;51.980;5.848;2023-01-09T07:09:13;6.82;;;0.47;;
42018;SDS011;27703;51.980;5.848;2023-01-09T07:11:39;7.30;;;0.70;;
42018;SDS011;27703;51.980;5.848;2023-01-09T07:14:05;6.22;;;0.77;;
42018;SDS011;27703;51.980;5.848;2023-01-09T07:16:30;9.07;;;0.38;;
42018;SDS011;27703;51.980;5.848;2023-01-09T07:18:57;12.93;;;0.60;;
42018;SDS011;27703;51.980;5.848;2023-01-09T07:21:23;5.70;;;0.50;;
42018;SDS011;27703;51.980;5.848;2023-01-09T07:23:49;4.03;;;0.40;;
42018;SDS011;27703;51.980;5.848;2023-01-09T07:26:14;13.07;;;1.08;;
42018;SDS011;27703;51.980;5.848;2023-01-09T07:28:40;11.55;;;0.50;;
42018;SDS011;27703;51.980;5.848;2023-01-09T07:31:05;7.85;;;0.80;;
42018;SDS011;27703;51.980;5.848;2023-01-09T07:33:31;8.73;;;0.70;;
42018;SDS011;27703;51.980;5.848;2023-01-09T07:35:57;5.97;;;0.50;;
42018;SDS011;27703;51.980;5.848;2023-01-09T07:38:23;6.60;;;0.40;;
42018;SDS011;27703;51.980;5.848;2023-01-09T07:40:49;6.10;;;0.75;;
42018;SDS011;27703;51.980;5.848;2023-01-09T07:43:14;3.97;;;0.60;;
42018;SDS011;27703;51.980;5.848;2023-01-09T07:45:40;5.35;;;0.60;;
42018;SDS011;27703;51.980;5.848;2023-01-09T07:48:05;7.00;;;0.98;;
42018;SDS011;27703;51.980;5.848;2023-01-09T07:50:31;6.85;;;1.13;;
42018;SDS011;27703;51.980;5.848;2023-01-09T07:52:57;5.00;;;0.50;;
42018;SDS011;27703;51.980;5.848;2023-01-09T07:55:22;8.85;;;1.05;;
42018;SDS011;27703;51.980;5.848;2023-01-09T07:57:48;8.55;;;1.20;;
42018;SDS011;27703;51.980;5.848;2023-01-09T08:00:15;11.43;;;0.70;;
42018;SDS011;27703;51.980;5.848;2023-01-09T08:02:41;4.22;;;0.65;;
42018;SDS011;27703;51.980;5.848;2023-01-09T08:05:06;5.20;;;1.02;;
42018;SDS011;27703;51.980;5.848;2023-01-09T08:07:33;6.40;;;0.50;;
42018;SDS011;27703;51.980;5.848;2023-01-09T08:09:59;5.57;;;0.95;;
42018;SDS011;27703;51.980;5.848;2023-01-09T08:12:24;7.78;;;0.60;;
42018;SDS011;27703;51.980;5.848;2023-01-09T08:14:50;4.47;;;0.80;;
42018;SDS011;27703;51.980;5.848;2023-01-09T08:17:16;8.65;;;1.60;;
42018;SDS011;27703;51.980;5.848;2023-01-09T08:19:41;7.30;;;1.40;;
42018;SDS011;27703;51.980;5.848;2023-01-09T08:22:08;4.70;;;0.80;;
42018;SDS011;27703;51.980;5.848;2023-01-09T08:24:34;3.40;;;0.73;;
42018;SDS011;27703;51.980;5.848;2023-01-09T08:27:00;10.27;;;1.10;;
42018;SDS011;27703;51.980;5.848;2023-01-09T08:29:26;9.38;;;1.27;;
42018;SDS011;27703;51.980;5.848;2023-01-09T08:31:54;4.38;;;1.52;;
42018;SDS011;27703;51.980;5.848;2023-01-09T08:34:20;14.38;;;2.42;;
42018;SDS011;27703;51.980;5.848;2023-01-09T08:36:45;3.92;;;1.30;;
42018;SDS011;27703;51.980;5.848;2023-01-09T08:39:11;9.23;;;1.50;;
42018;SDS011;27703;51.980;5.848;2023-01-09T08:41:37;8.02;;;1.95;;
42018;SDS011;27703;51.980;5.848;2023-01-09T08:44:21;10.18;;;1.17;;
42018;SDS011;27703;51.980;5.848;2023-01-09T08:47:05;8.68;;;1.58;;
42018;SDS011;27703;51.980;5.848;2023-01-09T08:49:34;7.05;;;1.80;;
42018;SDS011;27703;51.980;5.848;2023-01-09T08:52:02;8.15;;;2.17;;
42018;SDS011;27703;51.980;5.848;2023-01-09T08:54:28;3.95;;;1.40;;
42018;SDS011;27703;51.980;5.848;2023-01-09T08:56:54;7.40;;;2.00;;
42018;SDS011;27703;51.980;5.848;2023-01-09T08:59:20;7.22;;;2.10;;
42018;SDS011;27703;51.980;5.848;2023-01-09T09:01:45;7.75;;;1.88;;
42018;SDS011;27703;51.980;5.848;2023-01-09T09:04:11;6.63;;;2.13;;
42018;SDS011;27703;51.980;5.848;2023-01-09T09:06:36;3.83;;;1.88;;
42018;SDS011;27703;51.980;5.848;2023-01-09T09:09:02;5.07;;;1.63;;
42018;SDS011;27703;51.980;5.848;2023-01-09T09:11:28;8.40;;;2.50;;
42018;SDS011;27703;51.980;5.848;2023-01-09T09:13:54;6.95;;;1.90;;
42018;SDS011;27703;51.980;5.848;2023-01-09T09:16:20;7.90;;;3.15;;
42018;SDS011;27703;51.980;5.848;2023-01-09T09:18:46;4.38;;;1.88;;
42018;SDS011;27703;51.980;5.848;2023-01-09T09:21:11;7.38;;;2.92;;
42018;SDS011;27703;51.980;5.848;2023-01-09T09:23:37;5.78;;;2.90;;
42018;SDS011;27703;51.980;5.848;2023-01-09T09:26:03;5.43;;;2.22;;
42018;SDS011;27703;51.980;5.848;2023-01-09T09:28:29;11.27;;;3.92;;
42018;SDS011;27703;51.980;5.848;2023-01-09T09:30:54;8.80;;;3.35;;
42018;SDS011;27703;51.980;5.848;2023-01-09T09:33:20;12.07;;;4.07;;
42018;SDS011;27703;51.980;5.848;2023-01-09T09:35:45;4.72;;;3.13;;
42018;SDS011;27703;51.980;5.848;2023-01-09T09:38:11;6.95;;;3.22;;
42018;SDS011;27703;51.980;5.848;2023-01-09T09:40:46;6.22;;;3.40;;
42018;SDS011;27703;51.980;5.848;2023-01-09T09:48:48;7.05;;;2.60;;
42018;SDS011;27703;51.980;5.848;2023-01-09T09:51:25;4.80;;;2.35;;
42018;SDS011;27703;51.980;5.848;2023-01-09T09:56:27;5.03;;;1.95;;
42018;SDS011;27703;51.980;5.848;2023-01-09T09:59:00;9.75;;;2.92;;
42018;SDS011;27703;51.980;5.848;2023-01-09T10:01:35;6.50;;;2.70;;
42018;SDS011;27703;51.980;5.848;2023-01-09T10:04:11;5.00;;;2.40;;
42018;SDS011;27703;51.980;5.848;2023-01-09T10:06:44;10.13;;;2.40;;
42018;SDS011;27703;51.980;5.848;2023-01-09T10:14:28;8.50;;;2.58;;
42018;SDS011;27703;51.980;5.848;2023-01-09T10:17:06;9.70;;;2.08;;
42018;SDS011;27703;51.980;5.848;2023-01-09T10:20:07;7.45;;;3.30;;
42018;SDS011;27703;51.980;5.848;2023-01-09T10:28:24;8.07;;;3.75;;
42018;SDS011;27703;51.980;5.848;2023-01-09T10:31:16;12.77;;;3.83;;
42018;SDS011;27703;51.980;5.848;2023-01-09T10:34:00;12.07;;;3.15;;
42018;SDS011;27703;51.980;5.848;2023-01-09T10:39:43;5.25;;;2.85;;
42018;SDS011;27703;51.980;5.848;2023-01-09T10:42:18;6.10;;;2.38;;
42018;SDS011;27703;51.980;5.848;2023-01-09T10:45:02;10.05;;;2.13;;
42018;SDS011;27703;51.980;5.848;2023-01-09T10:47:49;5.97;;;2.08;;
42018;SDS011;27703;51.980;5.848;2023-01-09T10:50:22;6.80;;;1.67;;
42018;SDS011;27703;51.980;5.848;2023-01-09T10:52:52;5.85;;;2.30;;
42018;SDS011;27703;51.980;5.848;2023-01-09T10:55:36;3.75;;;1.67;;
42018;SDS011;27703;51.980;5.848;2023-01-09T10:58:12;4.13;;;2.22;;
42018;SDS011;27703;51.980;5.848;2023-01-09T11:00:40;7.35;;;1.92;;
42018;SDS011;27703;51.980;5.848;2023-01-09T11:03:09;5.97;;;1.90;;
42018;SDS011;27703;51.980;5.848;2023-01-09T11:05:40;8.02;;;1.67;;
42018;SDS011;27703;51.980;5.848;2023-01-09T11:10:46;7.43;;;1.98;;
42018;SDS011;27703;51.980;5.848;2023-01-09T11:13:18;5.03;;;1.40;;
42018;SDS011;27703;51.980;5.848;2023-01-09T11:16:29;6.72;;;2.08;;
42018;SDS011;27703;51.980;5.848;2023-01-09T11:18:53;7.35;;;1.95;;
42018;SDS011;27703;51.980;5.848;2023-01-09T11:21:24;4.15;;;1.15;;
42018;SDS011;27703;51.980;5.848;2023-01-09T11:23:52;6.07;;;1.48;;
42018;SDS011;27703;51.980;5.848;2023-01-09T11:26:40;16.33;;;2.25;;
42018;SDS011;27703;51.980;5.848;2023-01-09T11:29:15;6.97;;;1.20;;
42018;SDS011;27703;51.980;5.848;2023-01-09T11:31:50;4.38;;;0.90;;
42018;SDS011;27703;51.980;5.848;2023-01-09T11:34:19;7.28;;;0.77;;
42018;SDS011;27703;51.980;5.848;2023-01-09T11:36:48;2.88;;;0.80;;
42018;SDS011;27703;51.980;5.848;2023-01-09T11:39:25;8.15;;;1.45;;
42018;SDS011;27703;51.980;5.848;2023-01-09T11:41:54;3.50;;;1.65;;
42018;SDS011;27703;51.980;5.848;2023-01-09T11:44:22;7.30;;;2.17;;
42018;SDS011;27703;51.980;5.848;2023-01-09T11:46:49;4.07;;;0.90;;
42018;SDS011;27703;51.980;5.848;2023-01-09T11:49:20;6.78;;;1.27;;
42018;SDS011;27703;51.980;5.848;2023-01-09T11:54:46;6.10;;;1.00;;
42018;SDS011;27703;51.980;5.848;2023-01-09T11:57:23;3.22;;;0.80;;
42018;SDS011;27703;51.980;5.848;2023-01-09T11:59:49;6.88;;;0.82;;
42018;SDS011;27703;51.980;5.848;2023-01-09T12:02:29;4.53;;;1.00;;
42018;SDS011;27703;51.980;5.848;2023-01-09T12:08:22;7.10;;;2.50;;
42018;SDS011;27703;51.980;5.848;2023-01-09T12:14:02;6.90;;;0.82;;
42018;SDS011;27703;51.980;5.848;2023-01-09T12:17:00;3.63;;;0.88;;
42018;SDS011;27703;51.980;5.848;2023-01-09T12:28:00;10.43;;;0.60;;
42018;SDS011;27703;51.980;5.848;2023-01-09T12:31:13;6.53;;;0.77;;
42018;SDS011;27703;51.980;5.848;2023-01-09T12:36:31;6.43;;;0.68;;
42018;SDS011;27703;51.980;5.848;2023-01-09T12:44:52;9.75;;;0.90;;
42018;SDS011;27703;51.980;5.848;2023-01-09T12:50:18;8.23;;;0.85;;
42018;SDS011;27703;51.980;5.848;2023-01-09T12:52:55;10.88;;;0.95;;
42018;SDS011;27703;51.980;5.848;2023-01-09T12:55:45;6.90;;;1.20;;
42018;SDS011;27703;51.980;5.848;2023-01-09T12:59:03;11.10;;;1.40;;
42018;SDS011;27703;51.980;5.848;2023-01-09T13:01:12;6.55;;;0.77;;
42018;SDS011;27703;51.980;5.848;2023-01-09T13:06:31;9.65;;;0.68;;
42018;SDS011;27703;51.980;5.848;2023-01-09T13:11:44;12.68;;;1.05;;
42018;SDS011;27703;51.980;5.848;2023-01-09T13:14:17;14.55;;;1.25;;
42018;SDS011;27703;51.980;5.848;2023-01-09T13:16:54;11.93;;;1.17;;
42018;SDS011;27703;51.980;5.848;2023-01-09T13:22:04;15.48;;;1.13;;
42018;SDS011;27703;51.980;5.848;2023-01-09T13:24:36;12.13;;;0.80;;
42018;SDS011;27703;51.980;5.848;2023-01-09T13:27:16;10.57;;;0.65;;
42018;SDS011;27703;51.980;5.848;2023-01-09T13:29:45;9.25;;;0.90;;
42018;SDS011;27703;51.980;5.848;2023-01-09T13:35:33;6.78;;;0.57;;
42018;SDS011;27703;51.980;5.848;2023-01-09T13:38:18;6.07;;;0.40;;
42018;SDS011;27703;51.980;5.848;2023-01-09T13:40:46;6.75;;;0.50;;
42018;SDS011;27703;51.980;5.848;2023-01-09T13:43:56;9.52;;;0.98;;
42018;SDS011;27703;51.980;5.848;2023-01-09T13:57:34;9.20;;;1.45;;
42018;SDS011;27703;51.980;5.848;2023-01-09T14:05:15;7.63;;;1.27;;
42018;SDS011;27703;51.980;5.848;2023-01-09T14:08:05;6.40;;;1.00;;
42018;SDS011;27703;51.980;5.848;2023-01-09T14:13:16;7.18;;;0.93;;
42018;SDS011;27703;51.980;5.848;2023-01-09T14:15:47;6.40;;;0.93;;
42018;SDS011;27703;51.980;5.848;2023-01-09T14:23:33;3.05;;;0.50;;
42018;SDS011;27703;51.980;5.848;2023-01-09T14:26:02;4.22;;;0.60;;
42018;SDS011;27703;51.980;5.848;2023-01-09T14:28:29;6.53;;;0.30;;
42018;SDS011;27703;51.980;5.848;2023-01-09T14:38:30;4.75;;;0.30;;
42018;SDS011;27703;51.980;5.848;2023-01-09T14:46:29;4.18;;;0.50;;
42018;SDS011;27703;51.980;5.848;2023-01-09T14:51:30;3.35;;;0.70;;
42018;SDS011;27703;51.980;5.848;2023-01-09T14:53:58;6.03;;;0.82;;
42018;SDS011;27703;51.980;5.848;2023-01-09T14:56:29;2.45;;;0.40;;
42018;SDS011;27703;51.980;5.848;2023-01-09T14:59:02;6.25;;;0.55;;
42018;SDS011;27703;51.980;5.848;2023-01-09T15:01:28;5.43;;;0.60;;
42018;SDS011;27703;51.980;5.848;2023-01-09T15:04:01;4.97;;;0.55;;
42018;SDS011;27703;51.980;5.848;2023-01-09T15:06:32;7.72;;;0.80;;
42018;SDS011;27703;51.980;5.848;2023-01-09T15:09:03;5.20;;;0.75;;
42018;SDS011;27703;51.980;5.848;2023-01-09T15:11:31;6.25;;;0.95;;
42018;SDS011;27703;51.980;5.848;2023-01-09T15:13:58;6.68;;;0.63;;
42018;SDS011;27703;51.980;5.848;2023-01-09T15:16:26;3.40;;;0.68;;
42018;SDS011;27703;51.980;5.848;2023-01-09T15:18:54;6.82;;;0.60;;
42018;SDS011;27703;51.980;5.848;2023-01-09T15:21:24;3.53;;;0.50;;
42018;SDS011;27703;51.980;5.848;2023-01-09T15:23:51;8.77;;;0.98;;
42018;SDS011;27703;51.980;5.848;2023-01-09T15:26:24;7.20;;;0.60;;
42018;SDS011;27703;51.980;5.848;2023-01-09T15:28:52;2.90;;;0.47;;
42018;SDS011;27703;51.980;5.848;2023-01-09T15:31:24;5.55;;;0.60;;
42018;SDS011;27703;51.980;5.848;2023-01-09T15:33:51;6.78;;;0.90;;
42018;SDS011;27703;51.980;5.848;2023-01-09T15:36:18;5.60;;;0.70;;
42018;SDS011;27703;51.980;5.848;2023-01-09T15:38:52;6.70;;;0.65;;
42018;SDS011;27703;51.980;5.848;2023-01-09T15:41:22;4.63;;;0.70;;
42018;SDS011;27703;51.980;5.848;2023-01-09T15:44:20;2.95;;;0.50;;
42018;SDS011;27703;51.980;5.848;2023-01-09T15:46:49;5.70;;;0.50;;
42018;SDS011;27703;51.980;5.848;2023-01-09T15:49:16;10.95;;;0.80;;
42018;SDS011;27703;51.980;5.848;2023-01-09T15:51:43;4.97;;;0.60;;
42018;SDS011;27703;51.980;5.848;2023-01-09T15:54:14;4.78;;;0.50;;
42018;SDS011;27703;51.980;5.848;2023-01-09T15:56:42;6.97;;;0.70;;
42018;SDS011;27703;51.980;5.848;2023-01-09T16:01:53;5.25;;;0.45;;
42018;SDS011;27703;51.980;5.848;2023-01-09T16:04:44;5.40;;;0.60;;
42018;SDS011;27703;51.980;5.848;2023-01-09T16:07:14;11.15;;;1.45;;
42018;SDS011;27703;51.980;5.848;2023-01-09T16:09:42;3.03;;;0.60;;
42018;SDS011;27703;51.980;5.848;2023-01-09T16:12:16;4.18;;;0.80;;
42018;SDS011;27703;51.980;5.848;2023-01-09T16:14:51;6.45;;;0.80;;
42018;SDS011;27703;51.980;5.848;2023-01-09T16:17:19;7.75;;;1.20;;
42018;SDS011;27703;51.980;5.848;2023-01-09T16:19:51;6.30;;;0.82;;
42018;SDS011;27703;51.980;5.848;2023-01-09T16:22:28;12.50;;;0.55;;
42018;SDS011;27703;51.980;5.848;2023-01-09T16:24:57;11.43;;;0.80;;
42018;SDS011;27703;51.980;5.848;2023-01-09T16:27:28;8.23;;;0.77;;
42018;SDS011;27703;51.980;5.848;2023-01-09T16:29:58;4.55;;;0.88;;
42018;SDS011;27703;51.980;5.848;2023-01-09T16:34:59;10.77;;;1.40;;
42018;SDS011;27703;51.980;5.848;2023-01-09T16:37:29;3.53;;;0.63;;
42018;SDS011;27703;51.980;5.848;2023-01-09T16:40:41;6.90;;;0.73;;
42018;SDS011;27703;51.980;5.848;2023-01-09T16:42:42;6.65;;;1.10;;
42018;SDS011;27703;51.980;5.848;2023-01-09T16:45:24;9.98;;;1.48;;
42018;SDS011;27703;51.980;5.848;2023-01-09T16:47:51;9.82;;;1.70;;
42018;SDS011;27703;51.980;5.848;2023-01-09T16:50:17;6.13;;;1.70;;
42018;SDS011;27703;51.980;5.848;2023-01-09T16:52:43;8.70;;;1.70;;
42018;SDS011;27703;51.980;5.848;2023-01-09T16:55:08;7.45;;;1.98;;
42018;SDS011;27703;51.980;5.848;2023-01-09T16:57:35;15.77;;;3.58;;
42018;SDS011;27703;51.980;5.848;2023-01-09T17:00:01;20.17;;;7.05;;
42018;SDS011;27703;51.980;5.848;2023-01-09T17:02:28;17.73;;;4.03;;
42018;SDS011;27703;51.980;5.848;2023-01-09T17:04:53;12.35;;;3.67;;
42018;SDS011;27703;51.980;5.848;2023-01-09T17:07:20;6.90;;;1.77;;
42018;SDS011;27703;51.980;5.848;2023-01-09T17:09:49;7.60;;;2.10;;
42018;SDS011;27703;51.980;5.848;2023-01-09T17:12:16;10.45;;;2.47;;
42018;SDS011;27703;51.980;5.848;2023-01-09T17:14:44;10.88;;;3.03;;
42018;SDS011;27703;51.980;5.848;2023-01-09T17:17:10;12.23;;;3.15;;
42018;SDS011;27703;51.980;5.848;2023-01-09T17:19:39;4.82;;;2.15;;
42018;SDS011;27703;51.980;5.848;2023-01-09T17:22:05;11.77;;;3.03;;